sensor_id;sensor_type;location;lat;lon;timestamp;P1;durP1;ratioP1;P2;durP2;ratioP2
6015;SDS011;3036;49.960;8.454;2023-07-09T00:02:10;4.22;;;1.95;;
6015;SDS011;3036;49.960;8.454;2023-07-09T00:04:37;2.10;;;2.00;;
6015;SDS011;3036;49.960;8.454;2023-07-09T00:07:05;1.65;;;1.60;;
6015;SDS011;3036;49.960;8.454;2023-07-09T00:09:32;1.92;;;1.83;;
6015;SDS011;3036;49.960;8.454;2023-07-09T00:11:59;3.47;;;2.10;;
6015;SDS011;3036;49.960;8.454;2023-07-09T00:14:26;2.03;;;1.92;;
6015;SDS011;3036;49.960;8.454;2023-07-09T00:16:53;2.45;;;2.13;;
6015;SDS011;3036;49.960;8.454;2023-07-09T00:19:21;2.33;;;2.17;;
6015;SDS011;3036;49.960;8.454;2023-07-09T00:21:49;2.90;;;2.35;;
6015;SDS011;3036;49.960;8.454;2023-07-09T00:24:18;2.90;;;2.08;;
6015;SDS011;3036;49.960;8.454;2023-07-09T00:26:45;2.05;;;1.95;;
6015;SDS011;3036;49.960;8.454;2023-07-09T00:29:13;1.83;;;1.73;;
6015;SDS011;3036;49.960;8.454;2023-07-09T00:31:40;2.08;;;1.98;;
6015;SDS011;3036;49.960;8.454;2023-07-09T00:34:08;1.83;;;1.60;;
6015;SDS011;3036;49.960;8.454;2023-07-09T00:36:38;1.92;;;1.83;;
6015;SDS011;3036;49.960;8.454;2023-07-09T00:39:08;2.15;;;2.05;;
6015;SDS011;3036;49.960;8.454;2023-07-09T00:41:37;2.13;;;2.03;;
6015;SDS011;3036;49.960;8.454;2023-07-09T00:44:18;1.98;;;1.83;;
6015;SDS011;3036;49.960;8.454;2023-07-09T00:49:33;2.47;;;1.90;;
6015;SDS011;3036;49.960;8.454;2023-07-09T00:52:20;2.60;;;2.00;;
6015;SDS011;3036;49.960;8.454;2023-07-09T00:54:47;2.15;;;1.90;;
6015;SDS011;3036;49.960;8.454;2023-07-09T00:57:16;1.83;;;1.73;;
6015;SDS011;3036;49.960;8.454;2023-07-09T00:59:44;5.90;;;2.03;;
6015;SDS011;3036;49.960;8.454;2023-07-09T01:02:13;1.77;;;1.75;;
6015;SDS011;3036;49.960;8.454;2023-07-09T01:04:40;2.80;;;1.85;;
6015;SDS011;3036;49.960;8.454;2023-07-09T01:07:09;2.35;;;2.15;;
6015;SDS011;3036;49.960;8.454;2023-07-09T01:09:36;2.13;;;2.13;;
6015;SDS011;3036;49.960;8.454;2023-07-09T01:12:06;1.95;;;1.85;;
6015;SDS011;3036;49.960;8.454;2023-07-09T01:14:34;2.30;;;2.10;;
6015;SDS011;3036;49.960;8.454;2023-07-09T01:17:03;2.22;;;2.13;;
6015;SDS011;3036;49.960;8.454;2023-07-09T01:19:36;2.42;;;2.30;;
6015;SDS011;3036;49.960;8.454;2023-07-09T01:22:10;2.20;;;2.10;;
6015;SDS011;3036;49.960;8.454;2023-07-09T01:24:53;1.90;;;1.80;;
6015;SDS011;3036;49.960;8.454;2023-07-09T01:27:22;2.42;;;2.33;;
6015;SDS011;3036;49.960;8.454;2023-07-09T01:29:49;2.88;;;2.20;;
6015;SDS011;3036;49.960;8.454;2023-07-09T01:32:16;2.80;;;2.60;;
6015;SDS011;3036;49.960;8.454;2023-07-09T01:34:45;2.05;;;1.95;;
6015;SDS011;3036;49.960;8.454;2023-07-09T01:37:15;2.38;;;2.17;;
6015;SDS011;3036;49.960;8.454;2023-07-09T01:39:43;2.35;;;2.15;;
6015;SDS011;3036;49.960;8.454;2023-07-09T01:42:10;2.92;;;2.40;;
6015;SDS011;3036;49.960;8.454;2023-07-09T01:44:38;2.15;;;2.05;;
6015;SDS011;3036;49.960;8.454;2023-07-09T01:47:05;2.28;;;2.17;;
6015;SDS011;3036;49.960;8.454;2023-07-09T01:49:32;2.47;;;2.20;;
6015;SDS011;3036;49.960;8.454;2023-07-09T01:52:00;2.28;;;2.08;;
6015;SDS011;3036;49.960;8.454;2023-07-09T01:54:29;2.53;;;2.28;;
6015;SDS011;3036;49.960;8.454;2023-07-09T01:57:11;2.22;;;2.13;;
6015;SDS011;3036;49.960;8.454;2023-07-09T01:59:38;3.83;;;2.35;;
6015;SDS011;3036;49.960;8.454;2023-07-09T02:02:06;2.60;;;2.40;;
6015;SDS011;3036;49.960;8.454;2023-07-09T02:04:34;2.20;;;2.00;;
6015;SDS011;3036;49.960;8.454;2023-07-09T02:07:01;2.28;;;2.17;;
6015;SDS011;3036;49.960;8.454;2023-07-09T02:09:29;4.10;;;2.30;;
6015;SDS011;3036;49.960;8.454;2023-07-09T02:11:56;2.10;;;1.90;;
6015;SDS011;3036;49.960;8.454;2023-07-09T02:14:23;4.55;;;2.42;;
6015;SDS011;3036;49.960;8.454;2023-07-09T02:16:50;3.60;;;1.88;;
6015;SDS011;3036;49.960;8.454;2023-07-09T02:19:17;2.10;;;2.00;;
6015;SDS011;3036;49.960;8.454;2023-07-09T02:21:44;2.67;;;2.13;;
6015;SDS011;3036;49.960;8.454;2023-07-09T02:24:11;2.80;;;2.30;;
6015;SDS011;3036;49.960;8.454;2023-07-09T02:26:40;2.40;;;2.30;;
6015;SDS011;3036;49.960;8.454;2023-07-09T02:29:07;2.35;;;2.00;;
6015;SDS011;3036;49.960;8.454;2023-07-09T02:31:34;2.30;;;2.10;;
6015;SDS011;3036;49.960;8.454;2023-07-09T02:34:01;2.42;;;2.30;;
6015;SDS011;3036;49.960;8.454;2023-07-09T02:36:28;2.15;;;2.05;;
6015;SDS011;3036;49.960;8.454;2023-07-09T02:38:55;2.53;;;1.80;;
6015;SDS011;3036;49.960;8.454;2023-07-09T02:41:22;2.22;;;2.00;;
6015;SDS011;3036;49.960;8.454;2023-07-09T02:43:51;1.98;;;1.88;;
6015;SDS011;3036;49.960;8.454;2023-07-09T02:46:18;2.22;;;2.13;;
6015;SDS011;3036;49.960;8.454;2023-07-09T02:48:45;2.22;;;2.13;;
6015;SDS011;3036;49.960;8.454;2023-07-09T02:51:12;2.90;;;2.20;;
6015;SDS011;3036;49.960;8.454;2023-07-09T02:53:39;1.92;;;1.83;;
6015;SDS011;3036;49.960;8.454;2023-07-09T02:56:06;1.90;;;1.80;;
6015;SDS011;3036;49.960;8.454;2023-07-09T02:58:33;1.80;;;1.70;;
6015;SDS011;3036;49.960;8.454;2023-07-09T03:01:04;3.78;;;1.80;;
6015;SDS011;3036;49.960;8.454;2023-07-09T03:03:31;3.08;;;2.00;;
6015;SDS011;3036;49.960;8.454;2023-07-09T03:05:58;1.92;;;1.83;;
6015;SDS011;3036;49.960;8.454;2023-07-09T03:08:25;1.80;;;1.70;;
6015;SDS011;3036;49.960;8.454;2023-07-09T03:10:52;2.00;;;1.73;;
6015;SDS011;3036;49.960;8.454;2023-07-09T03:13:19;2.90;;;1.98;;
6015;SDS011;3036;49.960;8.454;2023-07-09T03:15:53;1.77;;;1.67;;
6015;SDS011;3036;49.960;8.454;2023-07-09T03:18:22;2.63;;;2.42;;
6015;SDS011;3036;49.960;8.454;2023-07-09T03:20:49;2.15;;;1.98;;
6015;SDS011;3036;49.960;8.454;2023-07-09T03:23:16;2.45;;;2.22;;
6015;SDS011;3036;49.960;8.454;2023-07-09T03:25:44;2.20;;;2.08;;
6015;SDS011;3036;49.960;8.454;2023-07-09T03:28:11;2.45;;;2.25;;
6015;SDS011;3036;49.960;8.454;2023-07-09T03:30:39;5.07;;;2.15;;
6015;SDS011;3036;49.960;8.454;2023-07-09T03:33:07;2.47;;;2.38;;
6015;SDS011;3036;49.960;8.454;2023-07-09T03:35:35;2.17;;;1.98;;
6015;SDS011;3036;49.960;8.454;2023-07-09T03:38:03;3.63;;;2.33;;
6015;SDS011;3036;49.960;8.454;2023-07-09T03:40:30;2.17;;;2.08;;
6015;SDS011;3036;49.960;8.454;2023-07-09T03:42:57;2.85;;;2.58;;
6015;SDS011;3036;49.960;8.454;2023-07-09T03:45:24;2.92;;;2.15;;
6015;SDS011;3036;49.960;8.454;2023-07-09T03:47:52;3.30;;;2.25;;
6015;SDS011;3036;49.960;8.454;2023-07-09T03:50:19;3.58;;;2.33;;
6015;SDS011;3036;49.960;8.454;2023-07-09T03:52:47;2.17;;;2.17;;
6015;SDS011;3036;49.960;8.454;2023-07-09T03:55:14;2.63;;;2.40;;
6015;SDS011;3036;49.960;8.454;2023-07-09T03:57:41;2.55;;;2.38;;
6015;SDS011;3036;49.960;8.454;2023-07-09T04:00:08;1.80;;;1.70;;
6015;SDS011;3036;49.960;8.454;2023-07-09T04:02:36;2.97;;;2.17;;
6015;SDS011;3036;49.960;8.454;2023-07-09T04:05:03;2.53;;;2.33;;
6015;SDS011;3036;49.960;8.454;2023-07-09T04:07:31;2.17;;;2.03;;
6015;SDS011;3036;49.960;8.454;2023-07-09T04:09:59;2.80;;;2.05;;
6015;SDS011;3036;49.960;8.454;2023-07-09T04:12:26;4.00;;;2.20;;
6015;SDS011;3036;49.960;8.454;2023-07-09T04:14:53;2.72;;;2.05;;
6015;SDS011;3036;49.960;8.454;2023-07-09T04:17:20;2.67;;;2.30;;
6015;SDS011;3036;49.960;8.454;2023-07-09T04:19:48;2.65;;;2.47;;
6015;SDS011;3036;49.960;8.454;2023-07-09T04:22:15;4.80;;;2.70;;
6015;SDS011;3036;49.960;8.454;2023-07-09T04:24:42;3.15;;;2.33;;
6015;SDS011;3036;49.960;8.454;2023-07-09T04:27:10;2.22;;;1.92;;
6015;SDS011;3036;49.960;8.454;2023-07-09T04:29:38;2.45;;;2.30;;
6015;SDS011;3036;49.960;8.454;2023-07-09T04:32:06;3.72;;;2.13;;
6015;SDS011;3036;49.960;8.454;2023-07-09T04:34:33;2.50;;;2.38;;
6015;SDS011;3036;49.960;8.454;2023-07-09T04:37:00;2.88;;;2.70;;
6015;SDS011;3036;49.960;8.454;2023-07-09T04:39:27;2.58;;;2.38;;
6015;SDS011;3036;49.960;8.454;2023-07-09T04:41:54;2.40;;;2.30;;
6015;SDS011;3036;49.960;8.454;2023-07-09T04:44:23;1.70;;;1.70;;
6015;SDS011;3036;49.960;8.454;2023-07-09T04:46:50;2.60;;;2.40;;
6015;SDS011;3036;49.960;8.454;2023-07-09T04:49:17;2.42;;;2.33;;
6015;SDS011;3036;49.960;8.454;2023-07-09T04:51:44;2.90;;;2.70;;
6015;SDS011;3036;49.960;8.454;2023-07-09T04:54:11;2.80;;;2.60;;
6015;SDS011;3036;49.960;8.454;2023-07-09T04:56:40;3.45;;;2.47;;
6015;SDS011;3036;49.960;8.454;2023-07-09T04:59:09;2.67;;;2.50;;
6015;SDS011;3036;49.960;8.454;2023-07-09T05:01:37;3.58;;;2.47;;
6015;SDS011;3036;49.960;8.454;2023-07-09T05:04:04;2.67;;;2.47;;
6015;SDS011;3036;49.960;8.454;2023-07-09T05:06:34;3.00;;;2.80;;
6015;SDS011;3036;49.960;8.454;2023-07-09T05:09:01;2.58;;;2.38;;
6015;SDS011;3036;49.960;8.454;2023-07-09T05:11:28;3.88;;;2.45;;
6015;SDS011;3036;49.960;8.454;2023-07-09T05:13:55;3.20;;;2.47;;
6015;SDS011;3036;49.960;8.454;2023-07-09T05:16:22;3.30;;;2.38;;
6015;SDS011;3036;49.960;8.454;2023-07-09T05:18:50;2.67;;;2.47;;
6015;SDS011;3036;49.960;8.454;2023-07-09T05:21:17;2.38;;;2.17;;
6015;SDS011;3036;49.960;8.454;2023-07-09T05:23:44;2.35;;;2.20;;
6015;SDS011;3036;49.960;8.454;2023-07-09T05:26:11;3.72;;;2.78;;
6015;SDS011;3036;49.960;8.454;2023-07-09T05:28:38;4.97;;;2.47;;
6015;SDS011;3036;49.960;8.454;2023-07-09T05:31:05;2.50;;;2.40;;
6015;SDS011;3036;49.960;8.454;2023-07-09T05:33:33;2.80;;;2.42;;
6015;SDS011;3036;49.960;8.454;2023-07-09T05:36:01;4.00;;;2.92;;
6015;SDS011;3036;49.960;8.454;2023-07-09T05:38:28;3.03;;;2.60;;
6015;SDS011;3036;49.960;8.454;2023-07-09T05:40:59;2.60;;;2.50;;
6015;SDS011;3036;49.960;8.454;2023-07-09T05:43:27;3.03;;;2.67;;
6015;SDS011;3036;49.960;8.454;2023-07-09T05:45:54;2.50;;;2.40;;
6015;SDS011;3036;49.960;8.454;2023-07-09T05:48:22;3.00;;;2.80;;
6015;SDS011;3036;49.960;8.454;2023-07-09T05:50:52;3.42;;;2.83;;
6015;SDS011;3036;49.960;8.454;2023-07-09T05:53:21;2.95;;;2.80;;
6015;SDS011;3036;49.960;8.454;2023-07-09T05:55:52;2.38;;;2.28;;
6015;SDS011;3036;49.960;8.454;2023-07-09T05:58:19;2.88;;;2.70;;
6015;SDS011;3036;49.960;8.454;2023-07-09T06:00:49;2.60;;;2.40;;
6015;SDS011;3036;49.960;8.454;2023-07-09T06:03:18;3.38;;;2.80;;
6015;SDS011;3036;49.960;8.454;2023-07-09T06:05:46;3.28;;;2.97;;
6015;SDS011;3036;49.960;8.454;2023-07-09T06:08:14;3.63;;;2.58;;
6015;SDS011;3036;49.960;8.454;2023-07-09T06:10:50;3.28;;;3.00;;
6015;SDS011;3036;49.960;8.454;2023-07-09T06:13:18;4.90;;;2.50;;
6015;SDS011;3036;49.960;8.454;2023-07-09T06:15:45;4.65;;;2.75;;
6015;SDS011;3036;49.960;8.454;2023-07-09T06:18:12;2.70;;;2.50;;
6015;SDS011;3036;49.960;8.454;2023-07-09T06:20:39;2.78;;;2.58;;
6015;SDS011;3036;49.960;8.454;2023-07-09T06:23:06;3.05;;;2.75;;
6015;SDS011;3036;49.960;8.454;2023-07-09T06:25:33;2.70;;;2.50;;
6015;SDS011;3036;49.960;8.454;2023-07-09T06:28:02;2.55;;;2.35;;
6015;SDS011;3036;49.960;8.454;2023-07-09T06:30:29;2.67;;;2.50;;
6015;SDS011;3036;49.960;8.454;2023-07-09T06:32:56;2.78;;;2.67;;
6015;SDS011;3036;49.960;8.454;2023-07-09T06:35:23;2.45;;;2.35;;
6015;SDS011;3036;49.960;8.454;2023-07-09T06:37:50;2.60;;;2.50;;
6015;SDS011;3036;49.960;8.454;2023-07-09T06:40:17;2.35;;;2.25;;
6015;SDS011;3036;49.960;8.454;2023-07-09T06:42:44;2.75;;;2.55;;
6015;SDS011;3036;49.960;8.454;2023-07-09T06:45:12;2.45;;;2.13;;
6015;SDS011;3036;49.960;8.454;2023-07-09T06:47:39;2.60;;;2.22;;
6015;SDS011;3036;49.960;8.454;2023-07-09T06:50:07;2.60;;;2.40;;
6015;SDS011;3036;49.960;8.454;2023-07-09T06:52:34;2.88;;;2.58;;
6015;SDS011;3036;49.960;8.454;2023-07-09T06:55:01;2.42;;;2.33;;
6015;SDS011;3036;49.960;8.454;2023-07-09T06:57:28;3.28;;;2.20;;
6015;SDS011;3036;49.960;8.454;2023-07-09T06:59:55;3.22;;;2.30;;
6015;SDS011;3036;49.960;8.454;2023-07-09T07:02:23;2.60;;;2.28;;
6015;SDS011;3036;49.960;8.454;2023-07-09T07:04:50;2.63;;;2.13;;
6015;SDS011;3036;49.960;8.454;2023-07-09T07:07:17;4.15;;;2.70;;
6015;SDS011;3036;49.960;8.454;2023-07-09T07:09:44;2.90;;;2.70;;
6015;SDS011;3036;49.960;8.454;2023-07-09T07:12:12;4.45;;;2.75;;
6015;SDS011;3036;49.960;8.454;2023-07-09T07:14:40;3.25;;;2.53;;
6015;SDS011;3036;49.960;8.454;2023-07-09T07:17:07;2.67;;;2.58;;
6015;SDS011;3036;49.960;8.454;2023-07-09T07:19:35;4.57;;;2.97;;
6015;SDS011;3036;49.960;8.454;2023-07-09T07:22:02;2.75;;;2.40;;
6015;SDS011;3036;49.960;8.454;2023-07-09T07:24:31;3.25;;;3.05;;
6015;SDS011;3036;49.960;8.454;2023-07-09T07:26:58;2.45;;;2.38;;
6015;SDS011;3036;49.960;8.454;2023-07-09T07:29:25;4.63;;;3.05;;
6015;SDS011;3036;49.960;8.454;2023-07-09T07:31:53;3.03;;;2.83;;
6015;SDS011;3036;49.960;8.454;2023-07-09T07:34:20;3.75;;;2.88;;
6015;SDS011;3036;49.960;8.454;2023-07-09T07:36:49;3.17;;;2.97;;
6015;SDS011;3036;49.960;8.454;2023-07-09T07:39:16;2.63;;;2.42;;
6015;SDS011;3036;49.960;8.454;2023-07-09T07:41:43;3.13;;;2.78;;
6015;SDS011;3036;49.960;8.454;2023-07-09T07:44:10;2.90;;;2.70;;
6015;SDS011;3036;49.960;8.454;2023-07-09T07:46:37;2.90;;;2.70;;
6015;SDS011;3036;49.960;8.454;2023-07-09T07:49:04;4.78;;;2.40;;
6015;SDS011;3036;49.960;8.454;2023-07-09T07:51:31;3.15;;;2.78;;
6015;SDS011;3036;49.960;8.454;2023-07-09T07:54:00;2.75;;;2.55;;
6015;SDS011;3036;49.960;8.454;2023-07-09T07:56:27;2.42;;;2.33;;
6015;SDS011;3036;49.960;8.454;2023-07-09T07:58:54;3.33;;;2.80;;
6015;SDS011;3036;49.960;8.454;2023-07-09T08:01:21;4.50;;;3.38;;
6015;SDS011;3036;49.960;8.454;2023-07-09T08:06:33;3.85;;;3.50;;
6015;SDS011;3036;49.960;8.454;2023-07-09T08:09:02;3.08;;;2.80;;
6015;SDS011;3036;49.960;8.454;2023-07-09T08:11:29;2.85;;;2.58;;
6015;SDS011;3036;49.960;8.454;2023-07-09T08:13:57;2.88;;;2.67;;
6015;SDS011;3036;49.960;8.454;2023-07-09T08:16:24;4.03;;;2.75;;
6015;SDS011;3036;49.960;8.454;2023-07-09T08:18:51;3.15;;;2.50;;
6015;SDS011;3036;49.960;8.454;2023-07-09T08:21:19;3.80;;;3.22;;
6015;SDS011;3036;49.960;8.454;2023-07-09T08:23:46;3.60;;;3.30;;
6015;SDS011;3036;49.960;8.454;2023-07-09T08:26:15;3.67;;;2.83;;
6015;SDS011;3036;49.960;8.454;2023-07-09T08:28:42;2.80;;;2.60;;
6015;SDS011;3036;49.960;8.454;2023-07-09T08:31:09;3.30;;;3.10;;
6015;SDS011;3036;49.960;8.454;2023-07-09T08:33:36;2.85;;;2.53;;
6015;SDS011;3036;49.960;8.454;2023-07-09T08:36:04;3.40;;;2.97;;
6015;SDS011;3036;49.960;8.454;2023-07-09T08:38:31;2.78;;;2.58;;
6015;SDS011;3036;49.960;8.454;2023-07-09T08:41:00;2.67;;;2.47;;
6015;SDS011;3036;49.960;8.454;2023-07-09T08:43:36;3.75;;;3.40;;
6015;SDS011;3036;49.960;8.454;2023-07-09T08:46:07;3.70;;;3.40;;
6015;SDS011;3036;49.960;8.454;2023-07-09T08:48:37;3.38;;;3.08;;
6015;SDS011;3036;49.960;8.454;2023-07-09T08:51:08;2.80;;;2.70;;
6015;SDS011;3036;49.960;8.454;2023-07-09T08:53:38;2.80;;;2.63;;
6015;SDS011;3036;49.960;8.454;2023-07-09T08:56:06;3.15;;;2.95;;
6015;SDS011;3036;49.960;8.454;2023-07-09T08:58:36;2.90;;;2.70;;
6015;SDS011;3036;49.960;8.454;2023-07-09T09:01:04;2.53;;;2.42;;
6015;SDS011;3036;49.960;8.454;2023-07-09T09:03:34;3.00;;;2.75;;
6015;SDS011;3036;49.960;8.454;2023-07-09T09:06:03;3.30;;;3.05;;
6015;SDS011;3036;49.960;8.454;2023-07-09T09:08:37;2.97;;;2.78;;
6015;SDS011;3036;49.960;8.454;2023-07-09T09:11:07;3.30;;;3.03;;
6015;SDS011;3036;49.960;8.454;2023-07-09T09:13:39;3.45;;;3.05;;
6015;SDS011;3036;49.960;8.454;2023-07-09T09:16:09;3.40;;;3.03;;
6015;SDS011;3036;49.960;8.454;2023-07-09T09:18:40;3.63;;;3.22;;
6015;SDS011;3036;49.960;8.454;2023-07-09T09:21:10;3.50;;;3.03;;
6015;SDS011;3036;49.960;8.454;2023-07-09T09:23:43;2.88;;;2.67;;
6015;SDS011;3036;49.960;8.454;2023-07-09T09:26:14;5.13;;;3.20;;
6015;SDS011;3036;49.960;8.454;2023-07-09T09:28:45;2.97;;;2.67;;
6015;SDS011;3036;49.960;8.454;2023-07-09T09:31:12;3.10;;;2.90;;
6015;SDS011;3036;49.960;8.454;2023-07-09T09:33:42;3.50;;;2.60;;
6015;SDS011;3036;49.960;8.454;2023-07-09T09:36:14;2.63;;;2.53;;
6015;SDS011;3036;49.960;8.454;2023-07-09T09:38:41;2.50;;;2.40;;
6015;SDS011;3036;49.960;8.454;2023-07-09T09:41:12;3.00;;;2.72;;
6015;SDS011;3036;49.960;8.454;2023-07-09T09:43:41;2.67;;;2.55;;
6015;SDS011;3036;49.960;8.454;2023-07-09T09:46:09;3.17;;;2.88;;
6015;SDS011;3036;49.960;8.454;2023-07-09T09:48:43;3.28;;;2.90;;
6015;SDS011;3036;49.960;8.454;2023-07-09T09:51:11;2.95;;;2.72;;
6015;SDS011;3036;49.960;8.454;2023-07-09T09:53:40;3.20;;;2.90;;
6015;SDS011;3036;49.960;8.454;2023-07-09T09:56:11;3.10;;;2.85;;
6015;SDS011;3036;49.960;8.454;2023-07-09T09:58:40;3.03;;;2.83;;
6015;SDS011;3036;49.960;8.454;2023-07-09T10:01:13;2.95;;;2.65;;
6015;SDS011;3036;49.960;8.454;2023-07-09T10:03:40;2.80;;;2.42;;
6015;SDS011;3036;49.960;8.454;2023-07-09T10:06:11;3.13;;;2.70;;
6015;SDS011;3036;49.960;8.454;2023-07-09T10:08:42;2.75;;;2.55;;
6015;SDS011;3036;49.960;8.454;2023-07-09T10:11:16;2.53;;;2.42;;
6015;SDS011;3036;49.960;8.454;2023-07-09T10:13:45;2.67;;;2.47;;
6015;SDS011;3036;49.960;8.454;2023-07-09T10:16:17;3.20;;;2.90;;
6015;SDS011;3036;49.960;8.454;2023-07-09T10:18:49;3.38;;;2.65;;
6015;SDS011;3036;49.960;8.454;2023-07-09T10:21:21;4.00;;;2.60;;
6015;SDS011;3036;49.960;8.454;2023-07-09T10:23:51;3.40;;;3.10;;
6015;SDS011;3036;49.960;8.454;2023-07-09T10:26:22;3.17;;;3.08;;
6015;SDS011;3036;49.960;8.454;2023-07-09T10:29:13;2.90;;;2.70;;
6015;SDS011;3036;49.960;8.454;2023-07-09T10:31:46;2.65;;;2.50;;
6015;SDS011;3036;49.960;8.454;2023-07-09T10:34:20;2.85;;;2.65;;
6015;SDS011;3036;49.960;8.454;2023-07-09T10:36:58;2.65;;;2.30;;
6015;SDS011;3036;49.960;8.454;2023-07-09T10:39:28;3.47;;;3.22;;
6015;SDS011;3036;49.960;8.454;2023-07-09T10:41:57;2.30;;;2.20;;
6015;SDS011;3036;49.960;8.454;2023-07-09T10:44:28;3.03;;;2.83;;
6015;SDS011;3036;49.960;8.454;2023-07-09T10:46:59;2.30;;;2.20;;
6015;SDS011;3036;49.960;8.454;2023-07-09T10:49:30;2.55;;;2.20;;
6015;SDS011;3036;49.960;8.454;2023-07-09T10:52:00;2.63;;;2.50;;
6015;SDS011;3036;49.960;8.454;2023-07-09T10:54:32;3.13;;;2.92;;
6015;SDS011;3036;49.960;8.454;2023-07-09T10:57:00;2.60;;;2.50;;
6015;SDS011;3036;49.960;8.454;2023-07-09T10:59:30;2.78;;;2.30;;
6015;SDS011;3036;49.960;8.454;2023-07-09T11:02:01;1.88;;;1.85;;
6015;SDS011;3036;49.960;8.454;2023-07-09T11:04:37;2.80;;;2.70;;
6015;SDS011;3036;49.960;8.454;2023-07-09T11:07:06;2.58;;;2.38;;
6015;SDS011;3036;49.960;8.454;2023-07-09T11:09:37;2.42;;;2.30;;
6015;SDS011;3036;49.960;8.454;2023-07-09T11:12:05;3.38;;;2.65;;
6015;SDS011;3036;49.960;8.454;2023-07-09T11:14:36;2.50;;;2.30;;
6015;SDS011;3036;49.960;8.454;2023-07-09T11:17:07;2.03;;;1.92;;
6015;SDS011;3036;49.960;8.454;2023-07-09T11:19:41;5.30;;;2.28;;
6015;SDS011;3036;49.960;8.454;2023-07-09T11:22:14;2.20;;;2.00;;
6015;SDS011;3036;49.960;8.454;2023-07-09T11:24:45;3.42;;;2.20;;
6015;SDS011;3036;49.960;8.454;2023-07-09T11:27:16;2.75;;;2.65;;
6015;SDS011;3036;49.960;8.454;2023-07-09T11:29:45;2.10;;;2.00;;
6015;SDS011;3036;49.960;8.454;2023-07-09T11:32:18;2.20;;;2.00;;
6015;SDS011;3036;49.960;8.454;2023-07-09T11:34:46;2.60;;;2.50;;
6015;SDS011;3036;49.960;8.454;2023-07-09T11:37:13;1.85;;;1.85;;
6015;SDS011;3036;49.960;8.454;2023-07-09T11:39:45;2.88;;;2.78;;
6015;SDS011;3036;49.960;8.454;2023-07-09T11:42:25;2.33;;;2.22;;
6015;SDS011;3036;49.960;8.454;2023-07-09T11:44:54;3.78;;;2.13;;
6015;SDS011;3036;49.960;8.454;2023-07-09T11:47:25;2.10;;;2.00;;
6015;SDS011;3036;49.960;8.454;2023-07-09T11:49:56;2.30;;;2.10;;
6015;SDS011;3036;49.960;8.454;2023-07-09T11:52:25;2.03;;;1.92;;
6015;SDS011;3036;49.960;8.454;2023-07-09T11:54:53;2.63;;;2.08;;
6015;SDS011;3036;49.960;8.454;2023-07-09T11:57:21;2.05;;;1.95;;
6015;SDS011;3036;49.960;8.454;2023-07-09T11:59:48;3.55;;;2.40;;
6015;SDS011;3036;49.960;8.454;2023-07-09T12:02:16;2.13;;;2.03;;
6015;SDS011;3036;49.960;8.454;2023-07-09T12:04:45;2.45;;;2.28;;
6015;SDS011;3036;49.960;8.454;2023-07-09T12:07:14;2.03;;;1.90;;
6015;SDS011;3036;49.960;8.454;2023-07-09T12:09:43;2.88;;;1.92;;
6015;SDS011;3036;49.960;8.454;2023-07-09T12:12:18;2.28;;;2.17;;
6015;SDS011;3036;49.960;8.454;2023-07-09T12:14:45;2.00;;;1.90;;
6015;SDS011;3036;49.960;8.454;2023-07-09T12:17:12;2.05;;;2.00;;
6015;SDS011;3036;49.960;8.454;2023-07-09T12:19:39;2.00;;;2.00;;
6015;SDS011;3036;49.960;8.454;2023-07-09T12:22:09;2.15;;;2.15;;
6015;SDS011;3036;49.960;8.454;2023-07-09T12:24:39;2.97;;;2.15;;
6015;SDS011;3036;49.960;8.454;2023-07-09T12:27:16;3.63;;;2.10;;
6015;SDS011;3036;49.960;8.454;2023-07-09T12:29:44;2.30;;;2.10;;
6015;SDS011;3036;49.960;8.454;2023-07-09T12:32:11;3.33;;;2.30;;
6015;SDS011;3036;49.960;8.454;2023-07-09T12:34:38;2.65;;;2.40;;
6015;SDS011;3036;49.960;8.454;2023-07-09T12:37:08;2.30;;;2.20;;
6015;SDS011;3036;49.960;8.454;2023-07-09T12:39:38;2.28;;;2.17;;
6015;SDS011;3036;49.960;8.454;2023-07-09T12:42:09;4.78;;;2.05;;
6015;SDS011;3036;49.960;8.454;2023-07-09T12:44:39;2.60;;;2.40;;
6015;SDS011;3036;49.960;8.454;2023-07-09T12:47:07;2.15;;;2.05;;
6015;SDS011;3036;49.960;8.454;2023-07-09T12:49:39;2.17;;;2.08;;
6015;SDS011;3036;49.960;8.454;2023-07-09T12:52:09;3.63;;;2.50;;
6015;SDS011;3036;49.960;8.454;2023-07-09T12:54:38;2.72;;;2.15;;
6015;SDS011;3036;49.960;8.454;2023-07-09T12:57:10;3.03;;;2.40;;
6015;SDS011;3036;49.960;8.454;2023-07-09T12:59:41;3.90;;;2.38;;
6015;SDS011;3036;49.960;8.454;2023-07-09T13:02:13;2.05;;;1.95;;
6015;SDS011;3036;49.960;8.454;2023-07-09T13:04:40;3.30;;;3.10;;
6015;SDS011;3036;49.960;8.454;2023-07-09T13:07:23;2.33;;;2.15;;
6015;SDS011;3036;49.960;8.454;2023-07-09T13:09:52;2.25;;;1.90;;
6015;SDS011;3036;49.960;8.454;2023-07-09T13:12:20;2.13;;;2.03;;
6015;SDS011;3036;49.960;8.454;2023-07-09T13:14:52;2.25;;;2.10;;
6015;SDS011;3036;49.960;8.454;2023-07-09T13:20:08;1.67;;;1.67;;
6015;SDS011;3036;49.960;8.454;2023-07-09T13:22:36;4.10;;;2.30;;
6015;SDS011;3036;49.960;8.454;2023-07-09T13:25:04;2.10;;;2.00;;
6015;SDS011;3036;49.960;8.454;2023-07-09T13:27:31;2.80;;;2.42;;
6015;SDS011;3036;49.960;8.454;2023-07-09T13:29:58;2.55;;;2.40;;
6015;SDS011;3036;49.960;8.454;2023-07-09T13:32:25;2.20;;;2.10;;
6015;SDS011;3036;49.960;8.454;2023-07-09T13:34:52;2.40;;;2.15;;
6015;SDS011;3036;49.960;8.454;2023-07-09T13:37:19;2.22;;;2.03;;
6015;SDS011;3036;49.960;8.454;2023-07-09T13:39:47;2.80;;;2.60;;
6015;SDS011;3036;49.960;8.454;2023-07-09T13:42:15;2.00;;;1.90;;
6015;SDS011;3036;49.960;8.454;2023-07-09T13:44:44;2.80;;;2.70;;
6015;SDS011;3036;49.960;8.454;2023-07-09T13:47:12;2.65;;;2.50;;
6015;SDS011;3036;49.960;8.454;2023-07-09T13:49:41;2.35;;;2.35;;
6015;SDS011;3036;49.960;8.454;2023-07-09T13:52:09;2.47;;;2.28;;
6015;SDS011;3036;49.960;8.454;2023-07-09T13:54:40;3.10;;;1.98;;
6015;SDS011;3036;49.960;8.454;2023-07-09T13:57:12;2.30;;;2.20;;
6015;SDS011;3036;49.960;8.454;2023-07-09T13:59:39;2.28;;;2.17;;
6015;SDS011;3036;49.960;8.454;2023-07-09T14:02:14;2.47;;;2.00;;
6015;SDS011;3036;49.960;8.454;2023-07-09T14:04:43;3.35;;;2.00;;
6015;SDS011;3036;49.960;8.454;2023-07-09T14:07:11;2.33;;;2.13;;
6015;SDS011;3036;49.960;8.454;2023-07-09T14:09:46;4.15;;;2.20;;
6015;SDS011;3036;49.960;8.454;2023-07-09T14:12:15;1.95;;;1.85;;
6015;SDS011;3036;49.960;8.454;2023-07-09T14:14:42;1.90;;;1.90;;
6015;SDS011;3036;49.960;8.454;2023-07-09T14:17:11;2.30;;;2.20;;
6015;SDS011;3036;49.960;8.454;2023-07-09T14:19:38;2.10;;;2.00;;
6015;SDS011;3036;49.960;8.454;2023-07-09T14:22:10;2.53;;;2.33;;
6015;SDS011;3036;49.960;8.454;2023-07-09T14:24:46;2.38;;;2.25;;
6015;SDS011;3036;49.960;8.454;2023-07-09T14:27:14;2.75;;;2.55;;
6015;SDS011;3036;49.960;8.454;2023-07-09T14:29:41;2.20;;;1.92;;
6015;SDS011;3036;49.960;8.454;2023-07-09T14:32:09;1.98;;;1.88;;
6015;SDS011;3036;49.960;8.454;2023-07-09T14:34:47;2.28;;;2.15;;
6015;SDS011;3036;49.960;8.454;2023-07-09T14:37:14;3.90;;;2.38;;
6015;SDS011;3036;49.960;8.454;2023-07-09T14:39:41;2.22;;;2.10;;
6015;SDS011;3036;49.960;8.454;2023-07-09T14:42:10;2.72;;;2.17;;
6015;SDS011;3036;49.960;8.454;2023-07-09T14:44:39;1.90;;;1.90;;
6015;SDS011;3036;49.960;8.454;2023-07-09T14:47:10;2.08;;;1.98;;
6015;SDS011;3036;49.960;8.454;2023-07-09T14:49:38;2.33;;;1.98;;
6015;SDS011;3036;49.960;8.454;2023-07-09T14:52:08;1.85;;;1.75;;
6015;SDS011;3036;49.960;8.454;2023-07-09T14:54:37;2.80;;;2.13;;
6015;SDS011;3036;49.960;8.454;2023-07-09T14:57:04;2.20;;;2.10;;
6015;SDS011;3036;49.960;8.454;2023-07-09T14:59:34;4.57;;;1.95;;
6015;SDS011;3036;49.960;8.454;2023-07-09T15:02:07;1.90;;;1.90;;
6015;SDS011;3036;49.960;8.454;2023-07-09T15:04:36;2.67;;;1.80;;
6015;SDS011;3036;49.960;8.454;2023-07-09T15:07:04;2.47;;;2.28;;
6015;SDS011;3036;49.960;8.454;2023-07-09T15:09:36;4.20;;;2.03;;
6015;SDS011;3036;49.960;8.454;2023-07-09T15:12:03;2.95;;;1.95;;
6015;SDS011;3036;49.960;8.454;2023-07-09T15:14:30;1.85;;;1.80;;
6015;SDS011;3036;49.960;8.454;2023-07-09T15:16:57;1.98;;;1.90;;
6015;SDS011;3036;49.960;8.454;2023-07-09T15:19:26;2.33;;;2.22;;
6015;SDS011;3036;49.960;8.454;2023-07-09T15:21:53;1.73;;;1.65;;
6015;SDS011;3036;49.960;8.454;2023-07-09T15:24:20;1.85;;;1.73;;
6015;SDS011;3036;49.960;8.454;2023-07-09T15:26:49;4.32;;;2.15;;
6015;SDS011;3036;49.960;8.454;2023-07-09T15:29:18;2.08;;;1.85;;
6015;SDS011;3036;49.960;8.454;2023-07-09T15:31:45;1.98;;;1.88;;
6015;SDS011;3036;49.960;8.454;2023-07-09T15:34:12;1.85;;;1.75;;